createdAt,value
2022-10-19T00:01:57.453Z,98686.66
2022-10-19T00:04:00.015Z,98690.34
2022-10-19T00:06:22.724Z,98674.25
2022-10-19T00:08:24.494Z,98671.84
2022-10-19T00:10:26.196Z,98669.03
2022-10-19T00:12:27.873Z,98671.56
2022-10-19T00:14:29.591Z,98669.88
2022-10-19T00:16:34.094Z,98665.50
2022-10-19T00:18:35.787Z,98642.22
2022-10-19T00:20:37.547Z,98641.38
2022-10-19T00:22:39.353Z,98634.03
2022-10-19T00:24:41.122Z,98633.19
2022-10-19T00:26:43.110Z,98629.66
2022-10-19T00:28:45.000Z,98641.38
2022-10-19T00:30:46.787Z,98647.56
2022-10-19T00:32:48.505Z,98636.00
2022-10-19T00:34:50.278Z,98634.31
2022-10-19T00:36:52.145Z,98625.28
2022-10-19T00:38:54.029Z,98628.81
2022-10-19T00:40:55.761Z,98639.41
2022-10-19T00:42:57.455Z,98636.84
2022-10-19T00:45:01.102Z,98626.13
2022-10-19T00:47:04.987Z,98627.84
2022-10-19T00:49:11.876Z,98625.16
2022-10-19T00:51:13.710Z,98617.94
2022-10-19T00:53:15.436Z,98618.91
2022-10-19T00:55:17.163Z,98627.84
2022-10-19T00:57:18.870Z,98632.31
2022-10-19T00:59:21.418Z,98624.28
2022-10-19T01:01:23.153Z,98623.31
2022-10-19T01:03:24.949Z,98629.53
2022-10-19T01:05:26.642Z,98619.78
2022-10-19T01:07:28.400Z,98622.47
2022-10-19T01:09:30.157Z,98618.91
2022-10-19T01:11:37.795Z,98619.63
2022-10-19T01:13:46.541Z,98622.47
2022-10-19T01:15:58.967Z,98633.03
2022-10-19T01:18:06.616Z,98623.31
2022-10-19T01:20:20.120Z,98623.31
2022-10-19T01:22:49.054Z,98618.66
2022-10-19T01:25:02.773Z,98608.06
2022-10-19T01:27:17.881Z,98612.59
2022-10-19T01:29:44.964Z,98617.13
2022-10-19T01:31:47.380Z,98619.63
2022-10-19T01:34:11.938Z,98618.91
2022-10-19T01:36:36.000Z,98612.59
2022-10-19T01:39:04.799Z,98612.59
2022-10-19T01:41:11.778Z,98612.59
2022-10-19T01:43:20.318Z,98596.50
2022-10-19T01:45:27.587Z,98584.06
2022-10-19T01:47:37.879Z,98589.44
2022-10-19T01:49:43.086Z,98584.06
2022-10-19T01:51:50.320Z,98584.94
2022-10-19T01:53:53.992Z,98580.41
2022-10-19T01:55:55.722Z,98568.84
2022-10-19T01:57:59.886Z,98582.38
2022-10-19T02:00:01.647Z,98576.19
2022-10-19T02:02:03.584Z,98572.50
2022-10-19T02:04:05.312Z,98570.66
2022-10-19T02:06:07.872Z,98563.63
2022-10-19T02:08:25.636Z,98562.63
2022-10-19T02:10:27.720Z,98556.41
2022-10-19T02:12:29.457Z,98558.13
2022-10-19T02:14:33.262Z,98551.88
2022-10-19T02:16:37.297Z,98545.56
2022-10-19T02:18:41.326Z,98539.34
2022-10-19T02:20:43.026Z,98538.47
2022-10-19T02:22:44.714Z,98537.50
2022-10-19T02:24:46.363Z,98535.81
2022-10-19T02:26:48.112Z,98532.16
2022-10-19T02:28:49.788Z,98533.81
2022-10-19T02:30:51.458Z,98533.81
2022-10-19T02:32:53.190Z,98526.78
2022-10-19T02:34:54.916Z,98531.84
2022-10-19T02:36:56.582Z,98522.97
2022-10-19T02:38:58.464Z,98526.34
2022-10-19T02:41:23.314Z,98530.72
2022-10-19T02:43:25.055Z,98532.56
2022-10-19T02:45:31.587Z,98527.31
2022-10-19T02:47:43.216Z,98521.13
2022-10-19T02:49:45.180Z,98525.50
2022-10-19T02:52:02.566Z,98520.16
2022-10-19T02:54:05.931Z,98514.63
2022-10-19T02:56:08.574Z,98516.34
2022-10-19T02:58:10.260Z,98508.97
2022-10-19T03:00:12.217Z,98501.78
2022-10-19T03:02:14.936Z,98507.97
2022-10-19T03:04:16.767Z,98501.66
2022-10-19T03:06:18.558Z,98502.75
2022-10-19T03:08:20.241Z,98501.78
2022-10-19T03:10:21.972Z,98495.56
2022-10-19T03:12:23.636Z,98501.91
2022-10-19T03:14:25.359Z,98497.41
2022-10-19T03:16:27.032Z,98497.41
2022-10-19T03:18:28.685Z,98502.06
2022-10-19T03:20:30.394Z,98498.41
2022-10-19T03:22:32.092Z,98497.69
2022-10-19T03:24:33.721Z,98493.75
2022-10-19T03:26:35.464Z,98490.19
2022-10-19T03:28:37.225Z,98477.91
2022-10-19T03:30:38.924Z,98473.44
2022-10-19T03:32:40.555Z,98477.91
2022-10-19T03:34:42.453Z,98474.25
2022-10-19T03:36:44.181Z,98470.88
2022-10-19T03:38:45.948Z,98473.56
2022-10-19T03:40:47.611Z,98481.59
2022-10-19T03:42:49.259Z,98481.31
2022-10-19T03:44:50.924Z,98481.06
2022-10-19T03:46:52.799Z,98470.03
2022-10-19T03:48:54.643Z,98471.72
2022-10-19T03:51:10.202Z,98466.50
2022-10-19T03:53:12.016Z,98466.50
2022-10-19T03:55:13.778Z,98454.25
2022-10-19T03:57:15.459Z,98450.84
2022-10-19T03:59:17.187Z,98447.16
2022-10-19T04:01:24.018Z,98452.50
2022-10-19T04:03:25.782Z,98447.44
2022-10-19T04:05:27.463Z,98447.44
2022-10-19T04:07:29.168Z,98446.59
2022-10-19T04:09:30.877Z,98444.00
2022-10-19T04:11:33.000Z,98435.56
2022-10-19T04:13:34.942Z,98426.69
2022-10-19T04:15:36.829Z,98417.78
2022-10-19T04:17:38.530Z,98420.03
2022-10-19T04:19:40.263Z,98414.50
2022-10-19T04:21:44.198Z,98412.22
2022-10-19T04:23:46.867Z,98413.06
2022-10-19T04:25:48.620Z,98417.44
2022-10-19T04:27:50.329Z,98409.53
2022-10-19T04:29:52.589Z,98412.91
2022-10-19T04:31:54.235Z,98415.69
2022-10-19T04:33:56.281Z,98412.63
2022-10-19T04:35:59.142Z,98410.53
2022-10-19T04:38:00.792Z,98418.31
2022-10-19T04:40:02.667Z,98423.16
2022-10-19T04:42:04.448Z,98426.81
2022-10-19T04:44:06.271Z,98425.41
2022-10-19T04:46:10.033Z,98420.63
2022-10-19T04:48:14.647Z,98413.56
2022-10-19T04:50:17.122Z,98408.75
2022-10-19T04:52:18.829Z,98414.25
2022-10-19T04:54:20.546Z,98409.75
2022-10-19T04:56:23.373Z,98404.53
2022-10-19T04:58:25.004Z,98408.91
2022-10-19T05:00:26.736Z,98405.25
2022-10-19T05:02:28.367Z,98412.41
2022-10-19T05:04:30.113Z,98405.53
2022-10-19T05:06:31.878Z,98408.19
2022-10-19T05:08:33.673Z,98405.53
2022-10-19T05:10:36.582Z,98410.03
2022-10-19T05:12:38.311Z,98407.22
2022-10-19T05:14:42.703Z,98408.19
2022-10-19T05:16:44.782Z,98411.75
2022-10-19T05:18:50.230Z,98409.91
2022-10-19T05:20:52.061Z,98403.84
2022-10-19T05:22:53.793Z,98403.84
2022-10-19T05:24:58.078Z,98400.31
2022-10-19T05:27:00.022Z,98406.53
2022-10-19T05:29:01.997Z,98403.97
2022-10-19T05:31:11.696Z,98391.28
2022-10-19T05:33:13.418Z,98392.09
2022-10-19T05:35:17.504Z,98396.81
2022-10-19T05:37:21.760Z,98399.50
2022-10-19T05:39:23.676Z,98393.56
2022-10-19T05:41:25.697Z,98392.72
2022-10-19T05:43:27.508Z,98390.75
2022-10-19T05:45:29.209Z,98394.13
2022-10-19T05:47:31.231Z,98393.81
2022-10-19T05:49:33.012Z,98394.13
2022-10-19T05:51:34.747Z,98380.72
2022-10-19T05:53:36.479Z,98388.59
2022-10-19T05:55:38.290Z,98379.72
2022-10-19T05:57:39.967Z,98376.03
2022-10-19T05:59:41.643Z,98375.88
2022-10-19T06:01:43.384Z,98378.44
2022-10-19T06:03:45.589Z,98375.75
2022-10-19T06:05:47.306Z,98372.06
2022-10-19T06:07:49.088Z,98377.41
2022-10-19T06:09:50.698Z,98379.16
2022-10-19T06:11:52.327Z,98368.97
2022-10-19T06:13:55.039Z,98376.03
2022-10-19T06:15:56.708Z,98377.00
2022-10-19T06:17:58.470Z,98379.81
2022-10-19T06:20:00.071Z,98374.47
2022-10-19T06:22:01.716Z,98377.41
2022-10-19T06:24:04.793Z,98389.16
2022-10-19T06:26:10.949Z,98379.41
2022-10-19T06:28:12.753Z,98368.69
2022-10-19T06:30:14.474Z,98375.75
2022-10-19T06:32:16.247Z,98377.16
2022-10-19T06:34:17.963Z,98371.78
2022-10-19T06:36:21.964Z,98366.13
2022-10-19T06:38:23.673Z,98367.81
2022-10-19T06:40:25.746Z,98370.50
2022-10-19T06:42:27.482Z,98364.16
2022-10-19T06:44:29.170Z,98373.03
2022-10-19T06:46:30.876Z,98365.13
2022-10-19T06:48:32.550Z,98365.13
2022-10-19T06:50:34.206Z,98364.44
2022-10-19T06:52:36.131Z,98360.91
2022-10-19T06:54:37.993Z,98353.72
2022-10-19T06:56:39.767Z,98358.09
2022-10-19T06:58:41.529Z,98359.06
2022-10-19T07:00:43.389Z,98353.72
2022-10-19T07:02:45.045Z,98358.22
2022-10-19T07:04:46.684Z,98358.09
2022-10-19T07:06:48.319Z,98355.41
2022-10-19T07:08:49.955Z,98349.22
2022-10-19T07:10:58.938Z,98351.03
2022-10-19T07:13:00.606Z,98353.72
2022-10-19T07:15:02.320Z,98350.31
2022-10-19T07:17:04.421Z,98351.19
2022-10-19T07:19:06.145Z,98353.72
2022-10-19T07:21:09.659Z,98351.19
2022-10-19T07:23:11.318Z,98346.66
2022-10-19T07:25:12.935Z,98349.66
2022-10-19T07:27:14.605Z,98348.78
2022-10-19T07:29:16.273Z,98346.09
2022-10-19T07:31:23.632Z,98350.50
2022-10-19T07:33:25.326Z,98349.66
2022-10-19T07:35:27.158Z,98350.59
2022-10-19T07:37:28.834Z,98346.97
2022-10-19T07:39:30.615Z,98351.63
2022-10-19T07:41:32.357Z,98353.44
2022-10-19T07:43:34.197Z,98353.44
2022-10-19T07:45:35.842Z,98348.94
2022-10-19T07:47:37.533Z,98352.44
2022-10-19T07:49:39.197Z,98351.63
2022-10-19T07:51:40.974Z,98346.25
2022-10-19T07:53:42.832Z,98347.91
2022-10-19T07:55:44.548Z,98347.81
2022-10-19T07:57:49.709Z,98342.13
2022-10-19T07:59:51.396Z,98350.19
2022-10-19T08:01:53.155Z,98341.63
2022-10-19T08:06:17.261Z,98345.84
2022-10-19T08:08:18.929Z,98347.91
2022-10-19T08:10:20.607Z,98339.03
2022-10-19T08:12:22.343Z,98345.25
2022-10-19T08:14:24.037Z,98339.88
2022-10-19T08:16:28.056Z,98340.59
2022-10-19T08:18:30.116Z,98336.91
2022-10-19T08:20:31.775Z,98344.97
2022-10-19T08:22:33.578Z,98342.44
2022-10-19T08:24:35.695Z,98341.72
2022-10-19T08:26:37.732Z,98347.22
2022-10-19T08:28:39.427Z,98340.19
2022-10-19T08:30:41.203Z,98342.69
2022-10-19T08:32:42.918Z,98331.13
2022-10-19T08:34:44.917Z,98328.44
2022-10-19T08:36:46.651Z,98326.59
2022-10-19T08:38:48.635Z,98337.19
2022-10-19T08:40:50.389Z,98329.16
2022-10-19T08:43:06.979Z,98336.50
2022-10-19T08:45:29.601Z,98333.69
2022-10-19T08:47:53.945Z,98331.13
2022-10-19T08:49:55.988Z,98336.81
2022-10-19T08:51:59.673Z,98336.81
2022-10-19T08:54:01.664Z,98335.81
2022-10-19T08:56:45.889Z,98339.19
2022-10-19T08:58:51.922Z,98345.25
2022-10-19T09:01:18.943Z,98343.56
2022-10-19T09:03:54.306Z,98345.25
2022-10-19T09:06:05.825Z,98347.09
2022-10-19T09:08:08.790Z,98343.72
2022-10-19T09:10:13.515Z,98350.06
2022-10-19T09:12:19.630Z,98353.72
2022-10-19T09:14:26.030Z,98350.91
2022-10-19T09:16:27.756Z,98350.91
2022-10-19T09:18:30.955Z,98354.56
2022-10-19T09:20:36.448Z,98356.59
2022-10-19T09:22:38.128Z,98351.22
2022-10-19T09:24:44.268Z,98356.59
2022-10-19T09:26:59.218Z,98355.72
2022-10-19T09:29:08.435Z,98358.56
2022-10-19T09:31:22.816Z,98347.84
2022-10-19T09:33:30.977Z,98358.56
2022-10-19T09:35:37.611Z,98360.25
2022-10-19T09:37:41.572Z,98360.09
2022-10-19T09:39:50.404Z,98364.47
2022-10-19T09:42:24.453Z,98359.94
2022-10-19T09:44:26.577Z,98359.09
2022-10-19T09:46:38.662Z,98361.63
2022-10-19T09:48:50.716Z,98357.25
2022-10-19T09:50:55.911Z,98358.25
2022-10-19T09:53:04.325Z,98357.94
2022-10-19T09:55:15.022Z,98359.94
2022-10-19T09:57:22.715Z,98358.25
2022-10-19T09:59:25.555Z,98360.09
2022-10-19T10:01:40.140Z,98353.72
2022-10-19T10:03:44.551Z,98358.25
2022-10-19T10:05:46.414Z,98353.59
2022-10-19T10:07:48.098Z,98358.78
2022-10-19T10:09:49.753Z,98360.50
2022-10-19T10:11:51.694Z,98350.91
2022-10-19T10:13:54.216Z,98354.28
2022-10-19T10:16:00.404Z,98363.31
2022-10-19T10:18:02.282Z,98357.25
2022-10-19T10:20:07.612Z,98361.63
2022-10-19T10:22:22.077Z,98350.59
2022-10-19T10:24:28.257Z,98359.66
2022-10-19T10:26:29.919Z,98354.28
2022-10-19T10:28:31.700Z,98359.66
2022-10-19T10:30:36.332Z,98360.38
2022-10-19T10:32:38.737Z,98359.38
2022-10-19T10:35:18.954Z,98353.19
2022-10-19T10:37:23.151Z,98352.34
2022-10-19T10:39:26.584Z,98343.28
2022-10-19T10:41:28.241Z,98344.97
2022-10-19T10:43:31.803Z,98339.59
2022-10-19T10:45:38.728Z,98337.94
2022-10-19T10:47:40.428Z,98336.91
2022-10-19T10:49:42.266Z,98329.44
2022-10-19T10:51:45.639Z,98328.28
2022-10-19T10:53:48.806Z,98321.06
2022-10-19T10:55:55.637Z,98323.75
2022-10-19T10:58:15.049Z,98327.97
2022-10-19T11:00:20.651Z,98323.47
2022-10-19T11:02:31.364Z,98323.47
2022-10-19T11:04:36.282Z,98323.47
2022-10-19T11:06:44.408Z,98322.47
2022-10-19T11:08:52.330Z,98326.00
2022-10-19T11:11:14.810Z,98334.03
2022-10-19T11:13:20.666Z,98328.66
2022-10-19T11:15:37.533Z,98326.00
2022-10-19T11:17:40.854Z,98326.81
2022-10-19T11:19:43.768Z,98318.63
2022-10-19T11:21:51.451Z,98311.59
2022-10-19T11:24:06.347Z,98311.59
2022-10-19T11:26:37.010Z,98317.78
2022-10-19T11:28:50.948Z,98322.00
2022-10-19T11:30:57.218Z,98336.13
2022-10-19T11:33:08.246Z,98338.94
2022-10-19T11:35:25.072Z,98330.91
2022-10-19T11:37:50.123Z,98329.22
2022-10-19T11:40:29.801Z,98335.44
2022-10-19T11:42:53.669Z,98339.78
2022-10-19T11:45:24.706Z,98335.44
2022-10-19T11:47:43.442Z,98343.16
2022-10-19T11:49:47.882Z,98339.94
2022-10-19T11:51:51.070Z,98338.59
2022-10-19T11:53:52.638Z,98343.56
2022-10-19T11:56:00.567Z,98340.16
2022-10-19T11:58:11.251Z,98342.56
2022-10-19T12:00:37.633Z,98339.38
2022-10-19T12:03:03.516Z,98336.78
2022-10-19T12:05:19.876Z,98333.22
2022-10-19T12:07:38.046Z,98334.06
2022-10-19T12:10:24.786Z,98332.91
2022-10-19T12:12:35.527Z,98331.88
2022-10-19T12:14:39.523Z,98331.16
2022-10-19T12:16:47.741Z,98330.81
2022-10-19T12:18:53.940Z,98335.84
2022-10-19T12:20:57.381Z,98331.28
2022-10-19T12:22:59.215Z,98335.69
2022-10-19T12:25:01.247Z,98333.16
2022-10-19T12:27:03.048Z,98336.53
2022-10-19T12:29:07.407Z,98336.88
2022-10-19T12:31:09.097Z,98331.97
2022-10-19T12:33:36.528Z,98332.69
2022-10-19T12:35:52.470Z,98333.00
2022-10-19T12:38:07.023Z,98331.28
2022-10-19T12:40:23.950Z,98342.06
2022-10-19T12:42:44.450Z,98340.72
2022-10-19T12:45:07.577Z,98343.53
2022-10-19T12:47:19.159Z,98336.94
2022-10-19T12:49:26.915Z,98333.91
2022-10-19T12:51:28.628Z,98343.47
2022-10-19T12:53:44.536Z,98339.03
2022-10-19T12:55:46.248Z,98345.25
2022-10-19T12:57:48.858Z,98335.16
2022-10-19T13:00:23.689Z,98340.69
2022-10-19T13:04:38.237Z,98336.44
2022-10-19T13:06:47.359Z,98338.78
2022-10-19T13:08:56.226Z,98342.84
2022-10-19T13:11:08.918Z,98342.84
2022-10-19T13:13:49.181Z,98350.03
2022-10-19T13:15:51.576Z,98353.69
2022-10-19T13:17:53.216Z,98346.81
2022-10-19T13:20:14.783Z,98351.19
2022-10-19T13:22:27.073Z,98353.69
2022-10-19T13:24:33.099Z,98350.53
2022-10-19T13:26:36.710Z,98357.28
2022-10-19T13:28:38.843Z,98351.91
2022-10-19T13:30:40.431Z,98348.84
2022-10-19T13:32:43.867Z,98355.06
2022-10-19T13:34:46.401Z,98357.91
2022-10-19T13:37:11.256Z,98367.69
2022-10-19T13:39:13.345Z,98362.19
2022-10-19T13:41:25.435Z,98367.78
2022-10-19T13:43:50.393Z,98366.94
2022-10-19T13:46:12.620Z,98370.94
2022-10-19T13:48:50.038Z,98367.69
2022-10-19T13:50:58.201Z,98371.53
2022-10-19T13:53:31.797Z,98361.75
2022-10-19T13:55:51.768Z,98363.25
2022-10-19T13:58:11.625Z,98371.03
2022-10-19T14:00:29.547Z,98378.59
2022-10-19T14:02:49.504Z,98385.34
2022-10-19T14:05:18.523Z,98382.59
2022-10-19T14:07:32.056Z,98372.66
2022-10-19T14:09:39.613Z,98379.59
2022-10-19T14:11:41.569Z,98379.41
2022-10-19T14:13:43.760Z,98381.06
2022-10-19T14:15:53.620Z,98379.03
2022-10-19T14:17:55.589Z,98385.22
2022-10-19T14:19:57.840Z,98378.47
2022-10-19T14:22:01.073Z,98379.13
2022-10-19T14:24:02.939Z,98384.78
2022-10-19T14:26:06.217Z,98388.44
2022-10-19T14:28:09.309Z,98386.78
2022-10-19T14:30:31.792Z,98386.25
2022-10-19T14:32:33.646Z,98386.06
2022-10-19T14:34:40.259Z,98387.03
2022-10-19T14:36:47.154Z,98394.72
2022-10-19T14:38:50.175Z,98387.16
2022-10-19T14:40:51.894Z,98385.81
2022-10-19T14:42:53.593Z,98389.59
2022-10-19T14:44:55.199Z,98392.81
2022-10-19T14:46:56.822Z,98398.19
2022-10-19T14:49:05.277Z,98397.41
2022-10-19T14:51:17.380Z,98402.31
2022-10-19T14:53:40.610Z,98399.53
2022-10-19T14:55:42.266Z,98405.59
2022-10-19T14:57:44.164Z,98409.09
2022-10-19T14:59:47.650Z,98410.38
2022-10-19T15:01:50.769Z,98418.59
2022-10-19T15:03:52.602Z,98415.53
2022-10-19T15:06:01.373Z,98417.38
2022-10-19T15:08:10.524Z,98418.53
2022-10-19T15:10:36.873Z,98412.78
2022-10-19T15:12:39.891Z,98418.16
2022-10-19T15:14:41.613Z,98423.13
2022-10-19T15:16:46.822Z,98426.50
2022-10-19T15:18:50.119Z,98425.81
2022-10-19T15:21:12.646Z,98426.84
2022-10-19T15:23:51.673Z,98425.16
2022-10-19T15:25:59.662Z,98430.53
2022-10-19T15:28:21.652Z,98438.72
2022-10-19T15:30:28.724Z,98437.47
2022-10-19T15:32:37.057Z,98441.28
2022-10-19T15:34:39.104Z,98450.53
2022-10-19T15:36:40.842Z,98446.25
2022-10-19T15:38:44.528Z,98455.03
2022-10-19T15:40:46.372Z,98450.97
2022-10-19T15:42:48.331Z,98452.88
2022-10-19T15:44:50.042Z,98453.13
2022-10-19T15:47:17.445Z,98455.88
2022-10-19T15:49:18.998Z,98453.19
2022-10-19T15:51:23.409Z,98464.47
2022-10-19T15:53:25.351Z,98466.13
2022-10-19T15:55:27.019Z,98468.31
2022-10-19T15:57:33.693Z,98463.47
2022-10-19T15:59:35.896Z,98466.13
2022-10-19T16:01:37.694Z,98462.25
2022-10-19T16:03:39.441Z,98463.91
2022-10-19T16:05:41.170Z,98461.69
2022-10-19T16:07:42.887Z,98457.50
2022-10-19T16:09:44.631Z,98462.06
2022-10-19T16:11:47.258Z,98461.38
2022-10-19T16:13:48.953Z,98462.22
2022-10-19T16:16:01.293Z,98469.28
2022-10-19T16:18:12.344Z,98459.47
2022-10-19T16:20:14.055Z,98461.50
2022-10-19T16:22:16.178Z,98465.22
2022-10-19T16:24:17.831Z,98472.28
2022-10-19T16:26:20.703Z,98469.59
2022-10-19T16:28:22.616Z,98468.03
2022-10-19T16:30:24.414Z,98467.25
2022-10-19T16:32:26.391Z,98475.66
2022-10-19T16:34:28.221Z,98471.66
2022-10-19T16:36:30.340Z,98476.38
2022-10-19T16:38:32.092Z,98473.53
2022-10-19T16:40:33.795Z,98473.16
2022-10-19T16:42:35.684Z,98480.75
2022-10-19T16:44:37.520Z,98479.75
2022-10-19T16:46:39.311Z,98482.28
2022-10-19T16:48:41.017Z,98482.44
2022-10-19T16:52:45.422Z,98484.84
2022-10-19T16:54:47.096Z,98487.19
2022-10-19T16:56:48.917Z,98477.97
2022-10-19T16:58:53.766Z,98485.84
2022-10-19T17:00:55.418Z,98491.56
2022-10-19T17:02:57.242Z,98492.09
2022-10-19T17:04:59.035Z,98501.50
2022-10-19T17:07:00.713Z,98493.25
2022-10-19T17:11:28.884Z,98496.09
2022-10-19T17:13:30.550Z,98498.84
2022-10-19T17:15:42.603Z,98498.66
2022-10-19T17:17:45.000Z,98501.66
2022-10-19T17:19:46.670Z,98511.81
2022-10-19T17:21:49.501Z,98505.75
2022-10-19T17:23:52.195Z,98507.44
2022-10-19T17:25:53.971Z,98514.16
2022-10-19T17:27:55.695Z,98508.63
2022-10-19T17:29:57.384Z,98514.69
2022-10-19T17:31:59.280Z,98515.84
2022-10-19T17:34:01.201Z,98516.69
2022-10-19T17:36:06.120Z,98523.28
2022-10-19T17:38:07.944Z,98524.66
2022-10-19T17:40:10.147Z,98526.50
2022-10-19T17:42:11.889Z,98527.31
2022-10-19T17:44:13.862Z,98532.06
2022-10-19T17:46:16.953Z,98525.81
2022-10-19T17:48:20.008Z,98525.81
2022-10-19T17:50:21.711Z,98528.88
2022-10-19T17:52:23.345Z,98532.41
2022-10-19T17:54:25.073Z,98536.97
2022-10-19T17:56:27.163Z,98529.34
2022-10-19T17:58:30.247Z,98535.06
2022-10-19T18:00:31.974Z,98533.28
2022-10-19T18:02:33.868Z,98530.81
2022-10-19T18:06:38.276Z,98546.19
2022-10-19T18:08:41.549Z,98546.53
2022-10-19T18:10:43.299Z,98541.78
2022-10-19T18:12:45.027Z,98546.78
2022-10-19T18:14:46.725Z,98546.81
2022-10-19T18:16:49.164Z,98543.50
2022-10-19T18:18:51.850Z,98543.72
2022-10-19T18:20:53.574Z,98547.41
2022-10-19T18:22:55.334Z,98543.78
2022-10-19T18:24:57.141Z,98548.84
2022-10-19T18:26:58.855Z,98561.16
2022-10-19T18:29:01.389Z,98551.38
2022-10-19T18:31:11.120Z,98558.00
2022-10-19T18:33:12.829Z,98565.00
2022-10-19T18:35:14.665Z,98556.38
2022-10-19T18:37:16.431Z,98561.38
2022-10-19T18:39:18.360Z,98565.38
2022-10-19T18:41:20.189Z,98568.22
2022-10-19T18:43:22.184Z,98564.28
2022-10-19T18:45:23.845Z,98558.91
2022-10-19T18:47:25.650Z,98570.13
2022-10-19T18:49:27.397Z,98562.38
2022-10-19T18:51:29.220Z,98569.75
2022-10-19T18:53:31.164Z,98569.88
2022-10-19T18:55:32.884Z,98565.53
2022-10-19T18:57:35.225Z,98570.91
2022-10-19T18:59:36.921Z,98566.66
2022-10-19T19:01:38.778Z,98563.28
2022-10-19T19:03:42.176Z,98575.03
2022-10-19T19:05:43.861Z,98574.34
2022-10-19T19:07:45.623Z,98574.34
2022-10-19T19:09:47.425Z,98565.59
2022-10-19T19:11:49.122Z,98565.91
2022-10-19T19:13:51.757Z,98574.94
2022-10-19T19:15:59.752Z,98571.94
2022-10-19T19:18:01.442Z,98569.97
2022-10-19T19:20:04.485Z,98570.13
2022-10-19T19:22:08.611Z,98567.91
2022-10-19T19:24:10.924Z,98578.31
2022-10-19T19:26:13.112Z,98579.16
2022-10-19T19:28:14.929Z,98578.19
2022-10-19T19:30:16.667Z,98578.31
2022-10-19T19:32:18.402Z,98584.00
2022-10-19T19:34:20.228Z,98586.53
2022-10-19T19:36:22.265Z,98590.53
2022-10-19T19:38:24.117Z,98586.97
2022-10-19T19:40:25.866Z,98596.88
2022-10-19T19:42:27.967Z,98594.38
2022-10-19T19:44:29.831Z,98595.34
2022-10-19T19:46:31.463Z,98590.81
2022-10-19T19:48:33.180Z,98598.03
2022-10-19T19:50:37.267Z,98595.91
2022-10-19T19:52:40.492Z,98600.41
2022-10-19T19:54:42.424Z,98600.56
2022-10-19T19:56:44.130Z,98604.09
2022-10-19T19:58:45.899Z,98608.19
2022-10-19T20:00:47.561Z,98611.56
2022-10-19T20:02:55.627Z,98617.22
2022-10-19T20:04:57.368Z,98618.22
2022-10-19T20:06:59.098Z,98618.38
2022-10-19T20:09:00.935Z,98625.59
2022-10-19T20:11:04.091Z,98631.97
2022-10-19T20:13:05.955Z,98627.56
2022-10-19T20:15:07.990Z,98632.94
2022-10-19T20:17:09.701Z,98638.31
2022-10-19T20:19:13.291Z,98645.53
2022-10-19T20:21:15.149Z,98642.72
2022-10-19T20:23:16.893Z,98642.00
2022-10-19T20:25:18.648Z,98646.69
2022-10-19T20:27:20.345Z,98644.13
2022-10-19T20:29:22.058Z,98651.34
2022-10-19T20:31:24.208Z,98649.38
2022-10-19T20:33:26.002Z,98654.75
2022-10-19T20:35:27.743Z,98647.66
2022-10-19T20:37:29.543Z,98654.03
2022-10-19T20:39:31.282Z,98636.22
2022-10-19T20:41:32.998Z,98638.06
2022-10-19T20:43:35.090Z,98648.81
2022-10-19T20:45:36.789Z,98645.97
2022-10-19T20:47:39.077Z,98654.88
2022-10-19T20:49:40.813Z,98650.66
2022-10-19T20:51:42.725Z,98647.97
2022-10-19T20:53:45.631Z,98654.03
2022-10-19T20:55:47.304Z,98651.34
2022-10-19T20:57:48.997Z,98652.31
2022-10-19T20:59:50.711Z,98651.34
2022-10-19T21:01:53.585Z,98650.50
2022-10-19T21:03:56.824Z,98651.34
2022-10-19T21:05:58.512Z,98662.09
2022-10-19T21:08:00.321Z,98659.28
2022-10-19T21:10:02.097Z,98655.72
2022-10-19T21:12:03.923Z,98654.34
2022-10-19T21:14:07.742Z,98658.72
2022-10-19T21:16:17.132Z,98655.31
2022-10-19T21:18:19.084Z,98657.16
2022-10-19T21:20:20.730Z,98658.00
2022-10-19T21:22:22.439Z,98648.09
2022-10-19T21:24:26.124Z,98668.91
2022-10-19T21:26:28.282Z,98661.84
2022-10-19T21:28:30.058Z,98657.31
2022-10-19T21:30:31.716Z,98665.34
2022-10-19T21:32:33.530Z,98664.38
2022-10-19T21:34:35.226Z,98666.06
2022-10-19T21:36:37.020Z,98674.13
2022-10-19T21:38:38.764Z,98664.38
2022-10-19T21:40:40.417Z,98675.13
2022-10-19T21:42:42.111Z,98668.03
2022-10-19T21:44:43.811Z,98672.56
2022-10-19T21:46:47.430Z,98678.78
2022-10-19T21:48:49.438Z,98671.75
2022-10-19T21:50:51.163Z,98672.56
2022-10-19T21:52:52.829Z,98674.69
2022-10-19T21:54:54.602Z,98679.34
2022-10-19T21:56:56.362Z,98682.75
2022-10-19T21:58:58.178Z,98682.75
2022-10-19T22:01:06.866Z,98678.34
2022-10-19T22:03:08.767Z,98679.09
2022-10-19T22:05:10.523Z,98681.63
2022-10-19T22:07:12.212Z,98687.72
2022-10-19T22:09:20.152Z,98687.84
2022-10-19T22:11:22.065Z,98691.50
2022-10-19T22:13:23.780Z,98696.88
2022-10-19T22:15:25.525Z,98699.44
2022-10-19T22:17:27.192Z,98695.19
2022-10-19T22:19:28.936Z,98696.03
2022-10-19T22:21:31.066Z,98697.75
2022-10-19T22:23:32.814Z,98702.94
2022-10-19T22:25:36.353Z,98698.59
2022-10-19T22:27:38.030Z,98699.56
2022-10-19T22:29:39.757Z,98705.94
2022-10-19T22:31:41.646Z,98703.97
2022-10-19T22:33:43.340Z,98709.59
2022-10-19T22:35:56.294Z,98709.59
2022-10-19T22:37:58.027Z,98710.47
2022-10-19T22:39:59.640Z,98721.03
2022-10-19T22:42:01.309Z,98723.72
2022-10-19T22:44:03.124Z,98722.06
2022-10-19T22:46:04.945Z,98730.81
2022-10-19T22:48:06.784Z,98729.09
2022-10-19T22:50:08.890Z,98725.56
2022-10-19T22:52:10.584Z,98727.44
2022-10-19T22:54:12.261Z,98729.50
2022-10-19T22:56:14.107Z,98734.03
2022-10-19T22:58:15.844Z,98731.34
2022-10-19T23:00:17.559Z,98735.88
2022-10-19T23:02:19.350Z,98736.72
2022-10-19T23:04:21.196Z,98732.06
2022-10-19T23:06:22.940Z,98740.84
2022-10-19T23:08:24.811Z,98740.84
2022-10-19T23:10:26.581Z,98739.84
2022-10-19T23:12:28.192Z,98741.81
2022-10-19T23:14:29.902Z,98758.22
2022-10-19T23:16:31.613Z,98744.66
2022-10-19T23:18:33.655Z,98757.06
2022-10-19T23:20:35.411Z,98746.31
2022-10-19T23:22:37.119Z,98743.81
2022-10-19T23:24:38.771Z,98756.22
2022-10-19T23:26:40.467Z,98756.22
2022-10-19T23:28:43.328Z,98759.91
2022-10-19T23:30:44.946Z,98762.75
2022-10-19T23:32:46.603Z,98766.25
2022-10-19T23:34:48.612Z,98768.09
2022-10-19T23:36:50.392Z,98777.16
2022-10-19T23:38:52.379Z,98770.94
2022-10-19T23:40:54.072Z,98780.81
2022-10-19T23:42:55.723Z,98779.16
2022-10-19T23:44:57.417Z,98777.44
2022-10-19T23:46:59.118Z,98779.97
2022-10-19T23:49:00.828Z,98783.66
2022-10-19T23:51:07.658Z,98779.16
2022-10-19T23:53:09.364Z,98783.66
2022-10-19T23:55:11.026Z,98780.97
2022-10-19T23:57:12.702Z,98785.34
2022-10-19T23:59:14.394Z,98789.00
